»·PEaware :: N29239 KCLR-KOXR

N29239 :: KCLR-KOXR

FLIGHT INFORMATION

Flight Status: Arrived
Operator: Privately registered:
United States
More flights under this callsign
Pilot: Evan M. (27470)
Aircraft: SOCATA TBM-900
(TBM9)
More flights by this aircraft type
Origin: KCLR Cliff Hatfield Meml
United States
Destination: KOXR Oxnard
United States
More flights between these airports :: More routes between these airports
Route: JLI V208 VTU
File this flight plan on PilotEdge
Remarks: RNAV 07 UVICA (IAF)
Altitude:
(Current/Filed)
16,000ft
Speed:
(Current/Filed)
250kts
Departed: 07-Feb-21 11:26 AM
Arrived: 07-Feb-21 12:23 PM
Distance/Time
Traveled:
194nm/0:57
Distance/Time
To Go:
Arrived

Flight Plot

Page will automatically refresh every two minutes.

Flight plan parsing failed; only flown route is shown


Map Options




Map Legend


Flown Route
Filed Route
Departure Airport
Arrival Airport
Navaid (VOR, NDB)
Fix

Horizontal Profiles

Position Reports

Time Latitude Longitude Heading Altitude Ground
Speed
07-Feb-21 11:15 33.127409 -115.522289 98 -178ft 0kts
07-Feb-21 11:16 33.127409 -115.522289 98 -178ft 0kts
07-Feb-21 11:17 33.127409 -115.522289 98 -178ft 0kts
07-Feb-21 11:18 33.127409 -115.522289 98 -178ft 0kts
07-Feb-21 11:19 33.127409 -115.522289 98 -178ft 0kts
07-Feb-21 11:20 33.127409 -115.522289 98 -178ft 0kts
07-Feb-21 11:21 33.127390 -115.521227 336 -177ft 4kts
07-Feb-21 11:22 33.130587 -115.525045 315 -183ft 8kts
07-Feb-21 11:23 33.130784 -115.522160 91 -183ft 17kts
07-Feb-21 11:24 33.130728 -115.516638 90 -174ft 13kts
07-Feb-21 11:25 33.131529 -115.532641 272 425ft 113kts
07-Feb-21 11:26 33.123601 -115.569119 267 3104ft 127kts
07-Feb-21 11:27 33.139571 -115.597418 34 5766ft 154kts
07-Feb-21 11:28 33.123121 -115.547889 133 7218ft 167kts
07-Feb-21 11:29 33.093581 -115.557409 241 8423ft 169kts
07-Feb-21 11:30 33.078147 -115.616612 281 8512ft 204kts
07-Feb-21 11:31 33.106485 -115.684114 288 8518ft 241kts
07-Feb-21 11:32 33.122062 -115.762952 278 8519ft 245kts
07-Feb-21 11:33 33.130942 -115.843627 276 8518ft 245kts
07-Feb-21 11:34 33.135080 -115.924481 270 8516ft 242kts
07-Feb-21 11:35 33.135924 -115.987306 271 11783ft 158kts
07-Feb-21 11:36 33.136339 -116.039819 273 14174ft 159kts
07-Feb-21 11:37 33.136935 -116.096230 272 15840ft 200kts
07-Feb-21 11:38 33.137582 -116.173826 272 15964ft 254kts
07-Feb-21 11:39 33.138304 -116.260225 272 15956ft 263kts
07-Feb-21 11:40 33.138967 -116.347877 272 15948ft 264kts
07-Feb-21 11:41 33.139578 -116.435619 272 15944ft 263kts
07-Feb-21 11:42 33.140112 -116.523087 272 15957ft 263kts
07-Feb-21 11:43 33.143440 -116.610042 280 15962ft 262kts
07-Feb-21 11:44 33.155442 -116.696525 280 15976ft 263kts
07-Feb-21 11:45 33.166981 -116.782686 280 16018ft 262kts
07-Feb-21 11:46 33.178457 -116.868691 280 15982ft 264kts
07-Feb-21 11:47 33.189906 -116.954808 280 15969ft 261kts
07-Feb-21 11:48 33.201242 -117.040544 280 15971ft 262kts
07-Feb-21 11:49 33.212559 -117.126639 280 16016ft 263kts
07-Feb-21 11:50 33.223839 -117.213034 280 16012ft 264kts
07-Feb-21 11:51 33.235239 -117.300701 280 15425ft 272kts
07-Feb-21 11:52 33.246790 -117.390296 280 13926ft 272kts
07-Feb-21 11:53 33.258254 -117.479216 280 12428ft 269kts
07-Feb-21 11:54 33.269425 -117.566764 280 10927ft 264kts
07-Feb-21 11:55 33.280375 -117.652995 280 9426ft 261kts
07-Feb-21 11:56 33.291146 -117.738193 280 7920ft 257kts
07-Feb-21 11:58 33.301727 -117.822429 279 6417ft 254kts
07-Feb-21 11:59 33.312166 -117.906241 279 6022ft 259kts
07-Feb-21 12:00 33.322804 -117.991750 279 6003ft 259kts
07-Feb-21 12:01 33.333352 -118.077210 279 6010ft 259kts
07-Feb-21 12:02 33.343835 -118.162606 279 6011ft 259kts
07-Feb-21 12:03 33.354245 -118.247945 279 6011ft 259kts
07-Feb-21 12:04 33.364603 -118.333321 279 6011ft 259kts
07-Feb-21 12:05 33.380854 -118.414524 305 6005ft 257kts
07-Feb-21 12:06 33.435080 -118.470204 325 6024ft 258kts
07-Feb-21 12:07 33.493682 -118.519942 324 6011ft 258kts
07-Feb-21 12:08 33.552238 -118.569430 324 6009ft 257kts
07-Feb-21 12:09 33.610652 -118.618896 324 6010ft 257kts
07-Feb-21 12:10 33.669278 -118.668607 324 6006ft 257kts
07-Feb-21 12:10 33.717906 -118.709925 324 6001ft 257kts
07-Feb-21 12:12 33.786172 -118.768000 324 6001ft 257kts
07-Feb-21 12:13 33.844784 -118.817974 324 6000ft 257kts
07-Feb-21 12:13 33.893496 -118.859551 324 6001ft 258kts
07-Feb-21 12:15 33.961869 -118.918045 324 6001ft 258kts
07-Feb-21 12:16 34.020453 -118.968238 324 6001ft 258kts
07-Feb-21 12:16 34.066853 -119.008176 323 5089ft 213kts
07-Feb-21 12:17 34.109112 -119.045252 314 4063ft 159kts
07-Feb-21 12:18 34.138879 -119.080613 312 3229ft 148kts
07-Feb-21 12:19 34.166237 -119.117759 312 2379ft 148kts
07-Feb-21 12:20 34.190318 -119.151480 306 1806ft 102kts
07-Feb-21 12:21 34.200405 -119.179109 274 500ft 82kts
07-Feb-21 12:22 34.200673 -119.202982 236 47ft 15kts
07-Feb-21 12:23 34.199737 -119.203677 274 47ft 14kts
07-Feb-21 12:24 34.199274 -119.205737 160 46ft 0kts

Navigation Log

Ident Type
Flight plan parsing failed, navigation log unavailable